createdAt,value
2022-10-04T00:00:41.792Z,76455.38
2022-10-04T00:03:19.045Z,76463.06
2022-10-04T00:05:51.267Z,76453.44
2022-10-04T00:08:40.869Z,76439.94
2022-10-04T00:11:16.704Z,76439.94
2022-10-04T00:13:52.749Z,76441.88
2022-10-04T00:16:24.997Z,76441.88
2022-10-04T00:19:02.310Z,76455.38
2022-10-04T00:21:52.386Z,76459.22
2022-10-04T00:24:33.874Z,76451.50
2022-10-04T00:27:23.879Z,76455.38
2022-10-04T00:30:26.036Z,76443.81
2022-10-04T00:33:02.671Z,76451.50
2022-10-04T00:35:29.308Z,76443.81
2022-10-04T00:38:08.885Z,76451.50
2022-10-04T00:40:57.462Z,76457.28
2022-10-04T00:43:30.427Z,76461.16
2022-10-04T00:46:05.938Z,76470.78
2022-10-04T00:48:47.806Z,76470.78
2022-10-04T00:51:29.686Z,76472.72
2022-10-04T00:54:04.680Z,76486.19
2022-10-04T00:56:37.292Z,76482.34
2022-10-04T00:59:10.262Z,76474.63
2022-10-04T01:01:38.038Z,76474.63
2022-10-04T01:04:12.837Z,76486.19
2022-10-04T01:06:41.182Z,76497.75
2022-10-04T01:09:11.562Z,76501.63
2022-10-04T01:11:45.817Z,76486.19
2022-10-04T01:14:26.733Z,76495.84
2022-10-04T01:16:53.695Z,76495.84
2022-10-04T01:19:24.527Z,76501.63
2022-10-04T01:22:10.577Z,76497.75
2022-10-04T01:24:38.913Z,76509.31
2022-10-04T01:27:33.783Z,76505.47
2022-10-04T01:30:02.405Z,76499.69
2022-10-04T01:32:31.165Z,76501.63
2022-10-04T01:34:58.701Z,76497.75
2022-10-04T01:37:25.749Z,76501.63
2022-10-04T01:39:52.659Z,76488.13
2022-10-04T01:42:27.387Z,76474.63
2022-10-04T01:44:59.786Z,76474.63
2022-10-04T01:47:31.142Z,76474.63
2022-10-04T01:50:02.763Z,76459.22
2022-10-04T01:52:35.643Z,76459.22
2022-10-04T01:55:14.254Z,76455.38
2022-10-04T01:58:00.789Z,76455.38
2022-10-04T02:00:41.280Z,76461.16
2022-10-04T02:03:17.997Z,76459.22
2022-10-04T02:05:52.827Z,76459.22
2022-10-04T02:08:27.396Z,76463.06
2022-10-04T02:10:55.084Z,76463.06
2022-10-04T02:13:24.339Z,76461.16
2022-10-04T02:15:51.522Z,76457.28
2022-10-04T02:18:21.172Z,76453.44
2022-10-04T02:20:50.020Z,76463.06
2022-10-04T02:23:19.784Z,76468.84
2022-10-04T02:25:47.152Z,76478.50
2022-10-04T02:28:15.581Z,76486.19
2022-10-04T02:31:07.501Z,76490.06
2022-10-04T02:33:40.252Z,76497.75
2022-10-04T02:36:09.903Z,76493.91
2022-10-04T02:38:48.032Z,76486.19
2022-10-04T02:41:27.030Z,76488.13
2022-10-04T02:43:59.425Z,76497.75
2022-10-04T02:46:29.195Z,76497.75
2022-10-04T02:48:59.921Z,76497.75
2022-10-04T02:51:50.771Z,76503.53
2022-10-04T02:54:32.057Z,76505.47
2022-10-04T02:56:59.844Z,76509.31
2022-10-04T02:59:27.383Z,76501.63
2022-10-04T03:01:58.356Z,76490.06
2022-10-04T03:04:33.834Z,76501.63
2022-10-04T03:07:07.211Z,76486.19
2022-10-04T03:09:36.505Z,76474.63
2022-10-04T03:12:05.002Z,76476.56
2022-10-04T03:14:32.375Z,76470.78
2022-10-04T03:17:03.999Z,76470.78
2022-10-04T03:19:32.205Z,76466.94
2022-10-04T03:22:03.773Z,76466.94
2022-10-04T03:24:56.184Z,76472.72
2022-10-04T03:27:31.561Z,76465.00
2022-10-04T03:29:59.597Z,76468.84
2022-10-04T03:32:30.583Z,76463.06
2022-10-04T03:35:03.068Z,76453.44
2022-10-04T03:37:31.900Z,76457.28
2022-10-04T03:39:59.835Z,76455.38
2022-10-04T03:42:30.531Z,76457.28
2022-10-04T03:45:07.492Z,76463.06
2022-10-04T03:47:37.649Z,76461.16
2022-10-04T03:50:33.655Z,76463.06
2022-10-04T03:53:04.482Z,76466.94
2022-10-04T03:55:38.844Z,76466.94
2022-10-04T03:58:07.121Z,76470.78
2022-10-04T04:00:43.290Z,76474.63
2022-10-04T04:03:17.372Z,76470.78
2022-10-04T04:05:57.664Z,76470.78
2022-10-04T04:08:34.133Z,76470.78
2022-10-04T04:11:04.248Z,76468.84
2022-10-04T04:13:46.364Z,76470.78
2022-10-04T04:16:14.812Z,76468.84
2022-10-04T04:18:44.386Z,76461.16
2022-10-04T04:21:18.695Z,76465.00
2022-10-04T04:23:51.220Z,76461.16
2022-10-04T04:26:17.925Z,76470.78
2022-10-04T04:29:22.415Z,76472.72
2022-10-04T04:31:55.041Z,76474.63
2022-10-04T04:34:27.834Z,76474.63
2022-10-04T04:37:00.198Z,76470.78
2022-10-04T04:39:41.256Z,76474.63
2022-10-04T04:42:10.958Z,76470.78
2022-10-04T04:45:02.040Z,76476.56
2022-10-04T04:47:35.062Z,76476.56
2022-10-04T04:50:07.907Z,76474.63
2022-10-04T04:52:36.020Z,76474.63
2022-10-04T04:55:04.514Z,76478.50
2022-10-04T04:57:33.397Z,76482.34
2022-10-04T05:00:01.840Z,76480.41
2022-10-04T05:02:29.760Z,76478.50
2022-10-04T05:05:35.150Z,76486.19
2022-10-04T05:08:14.728Z,76486.19
2022-10-04T05:11:06.226Z,76495.84
2022-10-04T05:13:32.887Z,76497.75
2022-10-04T05:16:01.708Z,76499.69
2022-10-04T05:18:34.561Z,76501.63
2022-10-04T05:21:43.069Z,76493.91
2022-10-04T05:24:13.894Z,76499.69
2022-10-04T05:26:42.710Z,76501.63
2022-10-04T05:29:18.928Z,76505.47
2022-10-04T05:32:07.402Z,76509.31
2022-10-04T05:34:40.511Z,76505.47
2022-10-04T05:37:29.617Z,76511.25
2022-10-04T05:40:05.611Z,76509.31
2022-10-04T05:42:45.437Z,76511.25
2022-10-04T05:45:18.576Z,76511.25
2022-10-04T05:47:52.364Z,76517.03
2022-10-04T05:50:29.207Z,76520.88
2022-10-04T05:53:09.712Z,76520.88
2022-10-04T05:55:39.296Z,76520.88
2022-10-04T05:58:23.305Z,76520.88
2022-10-04T06:01:15.428Z,76513.16
2022-10-04T06:04:22.473Z,76517.03
2022-10-04T06:06:59.214Z,76513.16
2022-10-04T06:10:01.032Z,76507.38
2022-10-04T06:12:45.264Z,76505.47
2022-10-04T06:15:48.993Z,76509.31
2022-10-04T06:18:33.872Z,76499.69
2022-10-04T06:21:22.595Z,76497.75
2022-10-04T06:23:49.166Z,76493.91
2022-10-04T06:26:25.019Z,76497.75
2022-10-04T06:29:01.504Z,76493.91
2022-10-04T06:31:46.823Z,76490.06
2022-10-04T06:34:19.745Z,76497.75
2022-10-04T06:37:06.800Z,76497.75
2022-10-04T06:39:55.284Z,76490.06
2022-10-04T06:42:49.746Z,76490.06
2022-10-04T06:45:29.650Z,76482.34
2022-10-04T06:48:02.155Z,76470.78
2022-10-04T06:50:36.686Z,76466.94
2022-10-04T06:53:26.577Z,76466.94
2022-10-04T06:56:03.085Z,76463.06
2022-10-04T06:58:35.859Z,76453.44
2022-10-04T07:01:32.304Z,76436.09
2022-10-04T07:04:06.215Z,76439.94
2022-10-04T07:07:26.886Z,76455.38
2022-10-04T07:10:03.166Z,76445.72
2022-10-04T07:12:33.707Z,76445.72
2022-10-04T07:15:04.441Z,76441.88
2022-10-04T07:17:38.396Z,76439.94
2022-10-04T07:20:07.640Z,76443.81
2022-10-04T07:22:41.918Z,76416.81
2022-10-04T07:25:30.654Z,76426.47
2022-10-04T07:28:38.503Z,76414.91
2022-10-04T07:31:23.305Z,76405.25
2022-10-04T07:33:56.172Z,76397.56
2022-10-04T07:36:28.948Z,76389.84
2022-10-04T07:39:05.984Z,76382.13
2022-10-04T07:41:50.946Z,76380.22
2022-10-04T07:44:37.244Z,76362.88
2022-10-04T07:47:18.473Z,76337.81
2022-10-04T07:49:45.720Z,76343.59
2022-10-04T07:52:30.872Z,76343.59
2022-10-04T07:55:22.831Z,76328.19
2022-10-04T07:57:54.786Z,76289.66
2022-10-04T08:00:26.234Z,76266.53
2022-10-04T08:02:59.184Z,76262.66
2022-10-04T08:05:42.239Z,76266.53
2022-10-04T08:08:21.126Z,76254.97
2022-10-04T08:10:59.809Z,76231.84
2022-10-04T08:13:46.042Z,76212.56
2022-10-04T08:16:41.070Z,76216.44
2022-10-04T08:19:51.550Z,76251.13
2022-10-04T08:22:29.963Z,76214.50
2022-10-04T08:25:16.495Z,76212.56
2022-10-04T08:28:23.258Z,76208.72
2022-10-04T08:31:10.028Z,76220.28
2022-10-04T08:33:57.886Z,76218.34
2022-10-04T08:37:03.256Z,76183.69
2022-10-04T08:39:55.422Z,76162.47
2022-10-04T08:42:41.937Z,76204.88
2022-10-04T08:45:08.588Z,76220.28
2022-10-04T08:47:55.005Z,76237.63
2022-10-04T08:50:49.105Z,76251.13
2022-10-04T08:53:35.348Z,76256.91
2022-10-04T08:56:13.260Z,76249.19
2022-10-04T08:59:06.792Z,76253.03
2022-10-04T09:02:00.185Z,76216.44
2022-10-04T09:04:32.486Z,76206.78
2022-10-04T09:07:17.847Z,76147.06
2022-10-04T09:09:44.673Z,76081.56
2022-10-04T09:12:29.369Z,76012.19
2022-10-04T09:15:14.104Z,76064.22
2022-10-04T09:17:59.140Z,76100.81
2022-10-04T09:20:38.816Z,76062.28
2022-10-04T09:23:14.903Z,76058.44
2022-10-04T09:25:41.827Z,76046.88
2022-10-04T09:28:33.248Z,76089.25
2022-10-04T09:31:22.751Z,76112.38
2022-10-04T09:34:55.693Z,76073.84
2022-10-04T09:37:29.678Z,76044.94
2022-10-04T09:40:30.208Z,76079.63
2022-10-04T09:43:24.821Z,76066.13
2022-10-04T09:46:20.529Z,76008.34
2022-10-04T09:49:08.341Z,76019.91
2022-10-04T09:51:56.241Z,76056.50
2022-10-04T09:54:56.764Z,76064.22
2022-10-04T09:57:51.111Z,76027.59
2022-10-04T10:00:29.437Z,76058.44
2022-10-04T10:03:11.025Z,76023.75
2022-10-04T10:05:56.412Z,76006.41
2022-10-04T10:08:50.915Z,76016.03
2022-10-04T10:12:08.855Z,76014.13
2022-10-04T10:15:06.490Z,76050.72
2022-10-04T10:17:43.323Z,76039.16
2022-10-04T10:20:10.135Z,76044.94
2022-10-04T10:22:57.977Z,76070.00
2022-10-04T10:25:47.370Z,76046.88
2022-10-04T10:28:35.908Z,76035.31
2022-10-04T10:31:33.005Z,76066.13
2022-10-04T10:34:08.645Z,76004.47
2022-10-04T10:36:59.978Z,75954.38
2022-10-04T10:40:00.313Z,75946.69
2022-10-04T10:42:38.833Z,75900.44
2022-10-04T10:45:47.344Z,75871.53
2022-10-04T10:48:20.090Z,75942.84
2022-10-04T10:51:38.089Z,75912.00
2022-10-04T10:54:20.612Z,75842.66
2022-10-04T10:57:21.660Z,75861.91
2022-10-04T11:00:13.042Z,75804.13
2022-10-04T11:03:12.803Z,75761.72
2022-10-04T11:05:51.563Z,75703.94
2022-10-04T11:08:36.817Z,75738.63
2022-10-04T11:11:24.979Z,75754.03
2022-10-04T11:13:57.581Z,75784.84
2022-10-04T11:16:35.748Z,75888.88
2022-10-04T11:19:06.355Z,75886.97
2022-10-04T11:22:07.489Z,75892.75
2022-10-04T11:24:45.858Z,75906.22
2022-10-04T11:27:28.939Z,75954.38
2022-10-04T11:30:09.360Z,75954.38
2022-10-04T11:32:51.177Z,75954.38
2022-10-04T11:35:39.393Z,75977.50
2022-10-04T11:38:12.077Z,75971.72
2022-10-04T11:40:53.659Z,75965.94
2022-10-04T11:43:36.191Z,75960.16
2022-10-04T11:46:14.486Z,75942.84
2022-10-04T11:48:54.127Z,75942.84
2022-10-04T11:51:44.958Z,75923.56
2022-10-04T11:54:27.664Z,75904.28
2022-10-04T11:57:25.419Z,75912.00
2022-10-04T12:00:07.254Z,75875.41
2022-10-04T12:03:02.716Z,75925.50
2022-10-04T12:05:48.474Z,75944.75
2022-10-04T12:08:33.488Z,75890.81
2022-10-04T12:11:52.354Z,75871.53
2022-10-04T12:14:44.149Z,75865.75
2022-10-04T12:17:10.701Z,75881.19
2022-10-04T12:19:59.305Z,75838.78
2022-10-04T12:22:32.019Z,75767.50
2022-10-04T12:25:01.622Z,75765.59
2022-10-04T12:27:53.329Z,75852.28
2022-10-04T12:30:22.632Z,75885.03
2022-10-04T12:33:11.287Z,75921.63
2022-10-04T12:35:52.160Z,75931.28
2022-10-04T12:38:26.622Z,75962.09
2022-10-04T12:41:02.006Z,75962.09
2022-10-04T12:43:52.039Z,75977.50
2022-10-04T12:46:48.760Z,75950.53
2022-10-04T12:49:40.369Z,75904.28
2022-10-04T12:52:17.442Z,75948.63
2022-10-04T12:54:47.430Z,75950.53
2022-10-04T12:57:40.310Z,75962.09
2022-10-04T13:00:20.694Z,75967.88
2022-10-04T13:02:57.465Z,75989.06
2022-10-04T13:05:52.277Z,75962.09
2022-10-04T13:08:37.912Z,75923.56
2022-10-04T13:11:04.708Z,75886.97
2022-10-04T13:13:34.197Z,75900.44
2022-10-04T13:19:13.853Z,75913.94
2022-10-04T13:22:05.481Z,75908.16
2022-10-04T13:24:56.589Z,75902.38
2022-10-04T13:27:38.478Z,75888.88
2022-10-04T13:30:20.372Z,75908.16
2022-10-04T13:33:05.156Z,75896.59
2022-10-04T13:35:46.734Z,75912.00
2022-10-04T13:38:41.571Z,75919.72
2022-10-04T13:41:37.162Z,75950.53
2022-10-04T13:44:09.857Z,75954.38
2022-10-04T13:47:17.773Z,75946.69
2022-10-04T13:50:10.813Z,75946.69
2022-10-04T13:53:08.147Z,75952.47
2022-10-04T13:56:30.182Z,75965.94
2022-10-04T13:59:35.245Z,75969.81
2022-10-04T14:02:32.630Z,75948.63
2022-10-04T14:05:16.021Z,75960.16
2022-10-04T14:08:13.299Z,75992.94
2022-10-04T14:10:48.533Z,75979.44
2022-10-04T14:13:40.885Z,75969.81
2022-10-04T14:16:38.206Z,75942.84
2022-10-04T14:19:26.430Z,75946.69
2022-10-04T14:22:04.846Z,75987.16
2022-10-04T14:24:47.007Z,76002.56
2022-10-04T14:27:51.739Z,75983.28
2022-10-04T14:30:38.739Z,75977.50
2022-10-04T14:33:35.266Z,75965.94
2022-10-04T14:36:23.753Z,75950.53
2022-10-04T14:39:14.529Z,75944.75
2022-10-04T14:41:53.343Z,75944.75
2022-10-04T14:44:47.906Z,75946.69
2022-10-04T14:47:28.958Z,75933.19
2022-10-04T14:50:19.047Z,75942.84
2022-10-04T14:52:48.594Z,75942.84
2022-10-04T14:55:46.287Z,75958.25
2022-10-04T14:58:24.466Z,75964.03
2022-10-04T15:01:02.389Z,75956.31
2022-10-04T15:03:39.017Z,75962.09
2022-10-04T15:06:26.864Z,75977.50
2022-10-04T15:09:06.271Z,75985.22
2022-10-04T15:12:25.634Z,75985.22
2022-10-04T15:15:12.902Z,76004.47
2022-10-04T15:17:55.303Z,76019.91
2022-10-04T15:20:30.985Z,76023.75
2022-10-04T15:23:13.490Z,76033.38
2022-10-04T15:25:51.936Z,76050.72
2022-10-04T15:28:39.808Z,76054.59
2022-10-04T15:31:25.495Z,76070.00
2022-10-04T15:34:25.627Z,76085.41
2022-10-04T15:37:10.259Z,76100.81
2022-10-04T15:39:51.687Z,76104.69
2022-10-04T15:42:21.291Z,76127.78
2022-10-04T15:45:23.010Z,76147.06
2022-10-04T15:47:52.654Z,76162.47
2022-10-04T15:50:54.046Z,76172.13
2022-10-04T15:53:44.232Z,76158.63
2022-10-04T15:56:27.590Z,76185.59
2022-10-04T15:59:12.565Z,76191.38
2022-10-04T16:02:02.223Z,76195.22
2022-10-04T16:04:32.549Z,76201.00
2022-10-04T16:07:17.089Z,76222.22
2022-10-04T16:10:14.795Z,76243.41
2022-10-04T16:12:48.492Z,76262.66
2022-10-04T16:15:38.537Z,76285.78
2022-10-04T16:18:44.103Z,76303.13
2022-10-04T16:21:15.987Z,76316.63
2022-10-04T16:23:45.292Z,76337.81
2022-10-04T16:26:19.461Z,76359.00
2022-10-04T16:29:00.543Z,76386.00
2022-10-04T16:31:45.707Z,76401.41
2022-10-04T16:34:15.431Z,76420.69
2022-10-04T16:36:54.132Z,76447.66
2022-10-04T16:40:08.550Z,76478.50
2022-10-04T16:42:56.222Z,76507.38
2022-10-04T16:45:38.715Z,76538.22
2022-10-04T16:48:33.732Z,76559.41
2022-10-04T16:51:23.439Z,76584.47
2022-10-04T16:53:53.287Z,76597.97
2022-10-04T16:56:24.891Z,76617.22
2022-10-04T16:59:00.504Z,76628.78
2022-10-04T17:01:56.802Z,76642.28
2022-10-04T17:04:41.427Z,76661.56
2022-10-04T17:07:13.674Z,76673.13
2022-10-04T17:09:40.280Z,76686.59
2022-10-04T17:12:27.336Z,76702.03
2022-10-04T17:15:13.948Z,76715.50
2022-10-04T17:18:05.122Z,76717.44
2022-10-04T17:20:40.705Z,76732.84
2022-10-04T17:23:46.097Z,76748.28
2022-10-04T17:27:05.759Z,76754.06
2022-10-04T17:30:00.194Z,76767.53
2022-10-04T17:32:55.044Z,76775.25
2022-10-04T17:35:44.424Z,76790.66
2022-10-04T17:38:20.379Z,76794.53
2022-10-04T17:41:00.619Z,76813.78
2022-10-04T17:43:33.163Z,76827.28
2022-10-04T17:46:33.522Z,76858.13
2022-10-04T17:49:40.523Z,76873.53
2022-10-04T17:52:37.183Z,76883.19
2022-10-04T17:55:16.740Z,76898.59
2022-10-04T17:57:55.765Z,76898.59
2022-10-04T18:00:28.485Z,76914.00
2022-10-04T18:03:10.370Z,76914.00
2022-10-04T18:05:50.727Z,76929.44
2022-10-04T18:08:27.293Z,76929.44
2022-10-04T18:11:06.101Z,76935.22
2022-10-04T18:13:49.972Z,76948.69
2022-10-04T18:16:28.502Z,76960.25
2022-10-04T18:18:55.569Z,76969.91
2022-10-04T18:21:31.568Z,76981.47
2022-10-04T18:24:20.191Z,76991.09
2022-10-04T18:27:14.604Z,76998.81
2022-10-04T18:30:01.445Z,77006.53
2022-10-04T18:32:28.069Z,77010.38
2022-10-04T18:34:56.826Z,77018.09
2022-10-04T18:37:39.106Z,77018.09
2022-10-04T18:40:28.633Z,77014.22
2022-10-04T18:42:57.760Z,77025.78
2022-10-04T18:45:28.906Z,77033.50
2022-10-04T18:47:58.891Z,77050.84
2022-10-04T18:50:43.738Z,77052.78
2022-10-04T18:53:14.182Z,77062.41
2022-10-04T18:55:43.994Z,77068.19
2022-10-04T18:58:43.485Z,77081.69
2022-10-04T19:02:00.300Z,77091.31
2022-10-04T19:04:55.580Z,77099.03
2022-10-04T19:07:29.327Z,77099.03
2022-10-04T19:10:19.083Z,77099.03
2022-10-04T19:13:02.470Z,77106.75
2022-10-04T19:15:41.667Z,77118.31
2022-10-04T19:18:36.836Z,77114.44
2022-10-04T19:21:15.746Z,77124.09
2022-10-04T19:24:21.520Z,77133.72
2022-10-04T19:26:52.361Z,77141.44
2022-10-04T19:29:41.431Z,77147.22
2022-10-04T19:32:19.545Z,77156.84
2022-10-04T19:35:37.705Z,77160.69
2022-10-04T19:38:20.685Z,77172.28
2022-10-04T19:40:54.099Z,77179.97
2022-10-04T19:43:36.473Z,77210.81
2022-10-04T19:46:15.039Z,77214.66
2022-10-04T19:48:52.428Z,77222.38
2022-10-04T19:51:42.694Z,77222.38
2022-10-04T19:54:16.255Z,77226.22
2022-10-04T19:56:49.396Z,77222.38
2022-10-04T19:59:31.178Z,77228.16
2022-10-04T20:01:57.951Z,77241.66
2022-10-04T20:04:38.551Z,77253.22
2022-10-04T20:07:18.139Z,77266.72
2022-10-04T20:09:47.897Z,77268.63
2022-10-04T20:13:04.140Z,77284.06
2022-10-04T20:15:34.819Z,77289.84
2022-10-04T20:18:03.325Z,77295.63
2022-10-04T20:20:38.873Z,77311.03
2022-10-04T20:23:10.342Z,77318.75
2022-10-04T20:25:45.898Z,77322.59
2022-10-04T20:28:28.051Z,77334.16
2022-10-04T20:30:57.803Z,77338.03
2022-10-04T20:33:37.237Z,77345.72
2022-10-04T20:36:11.385Z,77353.44
2022-10-04T20:38:47.232Z,77361.16
2022-10-04T20:41:29.687Z,77353.44
2022-10-04T20:44:01.817Z,77357.28
2022-10-04T20:46:38.086Z,77365.00
2022-10-04T20:49:14.576Z,77374.66
2022-10-04T20:51:48.302Z,77384.28
2022-10-04T20:54:20.240Z,77388.13
2022-10-04T20:56:49.397Z,77390.06
2022-10-04T20:59:18.060Z,77392.00
2022-10-04T21:02:01.746Z,77401.63
2022-10-04T21:04:29.859Z,77403.56
2022-10-04T21:06:57.776Z,77399.69
2022-10-04T21:09:25.986Z,77386.22
2022-10-04T21:11:54.862Z,77399.69
2022-10-04T21:14:25.904Z,77413.19
2022-10-04T21:16:57.552Z,77420.91
2022-10-04T21:19:38.768Z,77430.53
2022-10-04T21:22:29.040Z,77438.25
2022-10-04T21:25:01.164Z,77438.25
2022-10-04T21:27:43.551Z,77449.81
2022-10-04T21:30:15.609Z,77447.88
2022-10-04T21:32:42.402Z,77459.47
2022-10-04T21:35:09.406Z,77457.53
2022-10-04T21:37:36.908Z,77461.38
2022-10-04T21:40:05.303Z,77449.81
2022-10-04T21:42:32.450Z,77461.38
2022-10-04T21:44:59.107Z,77471.03
2022-10-04T21:47:25.908Z,77476.81
2022-10-04T21:49:53.830Z,77488.38
2022-10-04T21:52:20.930Z,77488.38
2022-10-04T21:54:47.629Z,77488.38
2022-10-04T21:57:14.439Z,77492.22
2022-10-04T21:59:41.226Z,77490.28
2022-10-04T22:02:08.393Z,77498.00
2022-10-04T22:04:35.152Z,77496.06
2022-10-04T22:07:01.816Z,77499.94
2022-10-04T22:09:29.229Z,77496.06
2022-10-04T22:11:55.984Z,77499.94
2022-10-04T22:14:22.679Z,77496.06
2022-10-04T22:16:50.131Z,77507.66
2022-10-04T22:19:17.289Z,77507.66
2022-10-04T22:21:44.033Z,77515.34
2022-10-04T22:24:19.551Z,77503.78
2022-10-04T22:26:47.129Z,77507.66
2022-10-04T22:29:15.837Z,77515.34
2022-10-04T22:31:49.142Z,77525.00
2022-10-04T22:34:17.364Z,77530.78
2022-10-04T22:36:44.718Z,77542.34
2022-10-04T22:39:15.613Z,77553.91
2022-10-04T22:41:43.811Z,77546.19
2022-10-04T22:44:17.283Z,77553.91
2022-10-04T22:46:48.195Z,77569.31
2022-10-04T22:49:22.612Z,77569.31
2022-10-04T22:51:51.682Z,77578.97
2022-10-04T22:54:20.900Z,77577.03
2022-10-04T22:56:48.378Z,77569.31
2022-10-04T22:59:19.427Z,77577.03
2022-10-04T23:01:47.291Z,77588.59
2022-10-04T23:04:20.892Z,77584.75
2022-10-04T23:06:48.168Z,77582.81
2022-10-04T23:09:15.499Z,77580.91
2022-10-04T23:11:42.773Z,77573.19
2022-10-04T23:14:09.621Z,77573.19
2022-10-04T23:16:37.254Z,77580.91
2022-10-04T23:19:10.111Z,77580.91
2022-10-04T23:21:38.657Z,77592.47
2022-10-04T23:24:19.491Z,77590.53
2022-10-04T23:26:49.136Z,77580.91
2022-10-04T23:29:23.916Z,77580.91
2022-10-04T23:31:51.647Z,77573.19
2022-10-04T23:34:33.040Z,77575.09
2022-10-04T23:37:00.049Z,77582.81
2022-10-04T23:39:36.152Z,77588.59
2022-10-04T23:42:15.985Z,77596.31
2022-10-04T23:44:42.771Z,77596.31
2022-10-04T23:47:14.203Z,77602.09
2022-10-04T23:49:41.275Z,77604.03
2022-10-04T23:52:14.331Z,77596.31
2022-10-04T23:54:41.288Z,77600.16
2022-10-04T23:57:17.270Z,77602.09
2022-10-04T23:59:44.026Z,77596.31
